Lemitar, New Mexico
Current Conditions -  °F | °C
As of 11:15 PM on Sunday 25 Jan 2015 (Local Time) from KONM Reporting Station
Clear Clear  
Wind Chill: -1°   Ceiling: Unl
Heat Index:   Visibility: 10mi
Dew Point: -4°   Wind: 5mph
Humidity: 71%   Direction: 200°SSW
Pressure: 30.32"   Gusts: NA
Location:  34.16°N, 106.91°W
Report Text: KONM 260615Z AUTO 20004KT 10SM CLR 01/M04 A3032 RMK AO2 T00111037
Loading
Personal Weather Stations






























Interactive Weather Map New forecast layout! Learn more

10-Day Weather Forecast

Advertisements
Track Severe Weather on mobile